Time;durP1;ratioP1;P1;durP2;ratioP2;P2;SDS_P1;SDS_P2;PMS_P1;PMS_P2;Temp;Humidity;BMP_temperature;BMP_pressure;BME280_temperature;BME280_humidity;BME280_pressure;Samples;Min_cycle;Max_cycle;Signal;HPM_P1;HPM_P2
2021/12/16 01:50:21;;;;;;;234.33;44.60;;;;;;;;;;5006822;23;20206;-79
2021/12/16 01:55:34;;;;;;;240.07;47.30;;;;;;;;;;5014435;23;20210;-78
2021/12/16 02:01:12;;;;;;;216.17;45.10;;;;;;;;;;4994080;23;20209;-78
2021/12/16 02:03:46;;;;;;;217.33;44.10;;;;;;;;;;5021603;23;20221;-77
2021/12/16 02:08:47;;;;;;;211.90;42.83;;;;;;;;;;5018011;23;20221;-79
2021/12/16 02:11:45;;;;;;;199.07;45.93;;;;;;;;;;5002982;23;20206;-78
2021/12/16 02:31:25;;;;;;;232.17;47.67;;;;;;;;;;4979946;23;20216;-79
2021/12/16 02:34:19;;;;;;;193.83;46.07;;;;;;;;;;4956548;23;20667;-77
2021/12/16 02:36:42;;;;;;;191.37;45.03;;;;;;;;;;5022533;23;20631;-78
2021/12/16 02:39:11;;;;;;;211.87;46.30;;;;;;;;;;5029924;23;20688;-77
2021/12/16 02:41:40;;;;;;;223.33;46.07;;;;;;;;;;5026145;23;22440;-79
2021/12/16 02:49:50;;;;;;;202.37;45.17;;;;;;;;;;5044337;23;20210;-78
2021/12/16 02:52:17;;;;;;;193.03;44.33;;;;;;;;;;5058139;23;21378;-77
2021/12/16 02:54:44;;;;;;;204.27;45.40;;;;;;;;;;5028503;23;20732;-77
2021/12/16 02:57:11;;;;;;;199.00;44.67;;;;;;;;;;5023926;23;23468;-79
2021/12/16 02:59:38;;;;;;;208.20;44.90;;;;;;;;;;5051976;23;20224;-81
2021/12/16 03:02:09;;;;;;;195.53;45.20;;;;;;;;;;5044519;23;20227;-81
2021/12/16 03:04:37;;;;;;;194.97;44.37;;;;;;;;;;5066807;23;24904;-81
2021/12/16 03:07:04;;;;;;;188.63;43.63;;;;;;;;;;5040117;23;20200;-76
2021/12/16 03:10:02;;;;;;;199.47;44.43;;;;;;;;;;5063566;23;20200;-76
2021/12/16 03:15:13;;;;;;;181.37;43.40;;;;;;;;;;5058962;23;20203;-80
2021/12/16 03:17:52;;;;;;;194.20;45.47;;;;;;;;;;5037770;23;20200;-81
2021/12/16 03:20:31;;;;;;;190.30;43.93;;;;;;;;;;5031756;23;23527;-81
2021/12/16 03:31:24;;;;;;;188.57;44.70;;;;;;;;;;5049251;23;20200;-84
2021/12/16 03:38:53;;;;;;;175.47;43.87;;;;;;;;;;5048242;23;20208;-82
2021/12/16 03:41:20;;;;;;;176.17;43.70;;;;;;;;;;5028453;23;22467;-83
2021/12/16 03:43:49;;;;;;;176.10;42.97;;;;;;;;;;5056221;23;20561;-81
2021/12/16 03:46:27;;;;;;;154.03;42.97;;;;;;;;;;5053903;23;22805;-81
2021/12/16 03:48:58;;;;;;;176.53;46.10;;;;;;;;;;5026367;23;20261;-79
2021/12/16 03:51:31;;;;;;;175.77;44.30;;;;;;;;;;5044151;23;22394;-80
2021/12/16 03:54:09;;;;;;;175.37;43.60;;;;;;;;;;5058998;23;20268;-78
2021/12/16 03:56:36;;;;;;;164.47;43.73;;;;;;;;;;5062991;23;20204;-80
2021/12/16 03:59:03;;;;;;;164.80;43.10;;;;;;;;;;5046380;23;20956;-80
2021/12/16 04:01:30;;;;;;;165.73;44.03;;;;;;;;;;5040891;23;20211;-81
2021/12/16 04:03:57;;;;;;;178.30;44.30;;;;;;;;;;5049187;23;21166;-81
2021/12/16 04:06:24;;;;;;;169.13;45.77;;;;;;;;;;5041367;23;20210;-80
2021/12/16 04:08:52;;;;;;;178.03;45.03;;;;;;;;;;5051481;23;20204;-79
2021/12/16 04:11:23;;;;;;;167.60;44.20;;;;;;;;;;5032482;23;20206;-79
2021/12/16 04:13:58;;;;;;;162.50;44.67;;;;;;;;;;5036963;23;20320;-80
2021/12/16 04:16:32;;;;;;;171.67;44.97;;;;;;;;;;5032846;23;20323;-81
2021/12/16 04:18:59;;;;;;;159.60;44.23;;;;;;;;;;5047910;23;21784;-82
2021/12/16 04:21:27;;;;;;;152.87;43.57;;;;;;;;;;5032523;23;21552;-82
2021/12/16 04:23:57;;;;;;;159.77;45.17;;;;;;;;;;5041201;23;20269;-81
2021/12/16 04:26:25;;;;;;;164.83;44.33;;;;;;;;;;5057762;23;20200;-82
2021/12/16 04:28:51;;;;;;;167.10;45.57;;;;;;;;;;5048378;23;20200;-80
2021/12/16 04:31:19;;;;;;;137.30;41.80;;;;;;;;;;5040135;23;20208;-81
2021/12/16 04:33:45;;;;;;;156.67;44.00;;;;;;;;;;5027479;23;20216;-80
2021/12/16 04:36:13;;;;;;;162.50;43.33;;;;;;;;;;5042822;23;20323;-80
2021/12/16 04:38:41;;;;;;;140.13;43.17;;;;;;;;;;5053528;23;20220;-82
2021/12/16 04:41:11;;;;;;;148.77;41.27;;;;;;;;;;5049203;23;20204;-81
2021/12/16 04:43:41;;;;;;;140.10;42.03;;;;;;;;;;5053767;23;20205;-83
2021/12/16 04:46:08;;;;;;;151.23;44.47;;;;;;;;;;5033422;23;20215;-80
2021/12/16 04:48:35;;;;;;;137.67;40.67;;;;;;;;;;5027225;23;20786;-79
2021/12/16 04:51:03;;;;;;;150.07;43.73;;;;;;;;;;5051250;23;21345;-82
2021/12/16 04:53:29;;;;;;;165.60;45.73;;;;;;;;;;5048391;23;20208;-82
2021/12/16 04:55:56;;;;;;;151.93;45.80;;;;;;;;;;5050879;23;20610;-79
2021/12/16 04:58:22;;;;;;;149.07;44.00;;;;;;;;;;5052133;23;20211;-82
2021/12/16 05:00:49;;;;;;;143.70;43.73;;;;;;;;;;5063994;23;20216;-82
2021/12/16 05:03:16;;;;;;;142.03;42.80;;;;;;;;;;5049666;23;20616;-79
2021/12/16 05:05:42;;;;;;;138.17;42.00;;;;;;;;;;5059700;23;20235;-82
2021/12/16 05:08:09;;;;;;;137.40;43.50;;;;;;;;;;5047860;23;21279;-82
2021/12/16 05:10:35;;;;;;;133.67;41.93;;;;;;;;;;5040662;23;20205;-80
2021/12/16 05:13:04;;;;;;;138.27;41.93;;;;;;;;;;5043234;23;21163;-82
2021/12/16 05:15:34;;;;;;;146.03;43.77;;;;;;;;;;5052862;23;21812;-81
2021/12/16 05:18:03;;;;;;;138.40;42.57;;;;;;;;;;5055948;23;21624;-82
2021/12/16 05:20:32;;;;;;;137.20;44.20;;;;;;;;;;5033369;23;20209;-82
2021/12/16 05:25:57;;;;;;;132.13;43.27;;;;;;;;;;5047937;23;20235;-84
2021/12/16 05:28:24;;;;;;;157.77;45.67;;;;;;;;;;5033134;23;20201;-81
2021/12/16 05:30:51;;;;;;;139.80;43.90;;;;;;;;;;5046890;23;20264;-83
2021/12/16 05:33:19;;;;;;;133.47;44.07;;;;;;;;;;5083122;23;20868;-80
2021/12/16 05:35:45;;;;;;;142.47;42.73;;;;;;;;;;5036722;23;20254;-85
2021/12/16 05:38:12;;;;;;;132.03;43.00;;;;;;;;;;5065563;23;20983;-80
2021/12/16 05:40:39;;;;;;;141.77;43.73;;;;;;;;;;5049137;23;20215;-80
2021/12/16 05:43:07;;;;;;;128.70;42.13;;;;;;;;;;5058195;23;21214;-85
2021/12/16 05:45:34;;;;;;;133.17;43.40;;;;;;;;;;5032971;23;20264;-81
2021/12/16 05:48:02;;;;;;;123.10;42.03;;;;;;;;;;5052877;23;20218;-80
2021/12/16 05:50:29;;;;;;;125.20;42.07;;;;;;;;;;5058207;23;20552;-82
2021/12/16 05:52:56;;;;;;;120.90;40.33;;;;;;;;;;5045372;23;20208;-80
2021/12/16 05:55:22;;;;;;;126.23;42.77;;;;;;;;;;5062180;23;22052;-81
2021/12/16 05:57:49;;;;;;;130.33;42.37;;;;;;;;;;5060952;23;20476;-81
2021/12/16 06:00:36;;;;;;;131.97;43.77;;;;;;;;;;5057377;23;20288;-80
2021/12/16 06:03:02;;;;;;;129.07;44.63;;;;;;;;;;5043880;23;20217;-79
2021/12/16 06:05:29;;;;;;;125.60;41.50;;;;;;;;;;5059268;23;20711;-82
2021/12/16 06:07:56;;;;;;;128.30;40.50;;;;;;;;;;5060364;23;26046;-83
2021/12/16 06:13:08;;;;;;;125.93;42.10;;;;;;;;;;5073562;23;20411;-81
2021/12/16 06:22:18;;;;;;;128.50;43.30;;;;;;;;;;5064545;23;20209;-81
2021/12/16 06:26:56;;;;;;;129.93;44.50;;;;;;;;;;5047255;23;20228;-81
2021/12/16 06:29:23;;;;;;;124.70;42.43;;;;;;;;;;5056110;23;20212;-82
2021/12/16 06:31:49;;;;;;;124.90;46.03;;;;;;;;;;5054755;23;20212;-80
2021/12/16 06:34:16;;;;;;;125.00;43.53;;;;;;;;;;5050493;23;21792;-79
2021/12/16 06:36:42;;;;;;;141.90;47.27;;;;;;;;;;5062956;23;20301;-81
2021/12/16 06:39:09;;;;;;;133.53;45.77;;;;;;;;;;5064052;23;20208;-84
2021/12/16 06:41:37;;;;;;;124.63;47.60;;;;;;;;;;5062926;23;20546;-80
2021/12/16 06:44:14;;;;;;;131.07;45.67;;;;;;;;;;5033990;23;20205;-79
2021/12/16 06:46:43;;;;;;;128.93;45.40;;;;;;;;;;5058341;23;20661;-80
2021/12/16 06:49:12;;;;;;;131.43;44.87;;;;;;;;;;5044554;23;20606;-83
2021/12/16 06:51:48;;;;;;;128.17;43.60;;;;;;;;;;5068407;23;20771;-80
2021/12/16 06:54:24;;;;;;;128.70;43.83;;;;;;;;;;5042423;23;20215;-82
2021/12/16 06:57:05;;;;;;;124.90;42.10;;;;;;;;;;5080154;23;23290;-82
2021/12/16 06:59:36;;;;;;;112.27;41.63;;;;;;;;;;5061926;23;20212;-83
2021/12/16 07:05:03;;;;;;;125.43;41.87;;;;;;;;;;5051010;23;20204;-82
2021/12/16 07:07:29;;;;;;;123.50;43.30;;;;;;;;;;5043206;23;20214;-78
2021/12/16 07:09:56;;;;;;;123.80;43.83;;;;;;;;;;5037417;23;20209;-80
2021/12/16 07:12:34;;;;;;;124.70;42.23;;;;;;;;;;5059944;23;20204;-81
2021/12/16 07:15:03;;;;;;;130.90;44.23;;;;;;;;;;5035594;23;21073;-82
2021/12/16 07:17:30;;;;;;;114.27;40.60;;;;;;;;;;5041647;23;20586;-80
2021/12/16 07:19:56;;;;;;;130.03;44.63;;;;;;;;;;5054198;23;20526;-82
2021/12/16 07:22:22;;;;;;;123.13;43.50;;;;;;;;;;5063197;23;20220;-82
2021/12/16 07:24:49;;;;;;;130.57;43.27;;;;;;;;;;5064069;23;20208;-76
2021/12/16 07:27:15;;;;;;;143.97;44.73;;;;;;;;;;5068782;23;21651;-79
2021/12/16 07:29:42;;;;;;;129.00;44.03;;;;;;;;;;5072448;23;20266;-77
2021/12/16 07:32:09;;;;;;;124.80;44.90;;;;;;;;;;5177640;23;21585;-77
2021/12/16 07:34:35;;;;;;;125.93;44.27;;;;;;;;;;5074370;23;20447;-79
2021/12/16 07:37:04;;;;;;;120.80;42.40;;;;;;;;;;5121279;23;20397;-78
2021/12/16 07:39:38;;;;;;;129.53;43.80;;;;;;;;;;5132381;23;20206;-79
2021/12/16 07:42:05;;;;;;;119.93;41.90;;;;;;;;;;5142818;23;20325;-78
2021/12/16 07:44:34;;;;;;;132.43;45.30;;;;;;;;;;5136136;23;20206;-78
2021/12/16 07:47:03;;;;;;;129.80;43.03;;;;;;;;;;5107227;23;20204;-77
2021/12/16 07:49:31;;;;;;;124.53;42.53;;;;;;;;;;5054540;23;20201;-79
2021/12/16 07:51:58;;;;;;;122.17;41.27;;;;;;;;;;5093357;23;20201;-78
2021/12/16 07:54:25;;;;;;;136.43;45.43;;;;;;;;;;5065040;23;20216;-81
2021/12/16 07:56:54;;;;;;;131.50;42.93;;;;;;;;;;5053970;23;20206;-78
2021/12/16 07:59:25;;;;;;;123.67;43.47;;;;;;;;;;5080008;23;20207;-78
2021/12/16 08:01:51;;;;;;;123.30;41.47;;;;;;;;;;5071844;23;20211;-78
2021/12/16 08:04:21;;;;;;;135.20;45.00;;;;;;;;;;5091295;23;20345;-80
2021/12/16 08:06:50;;;;;;;132.17;44.60;;;;;;;;;;5084892;23;20667;-77
2021/12/16 08:09:23;;;;;;;136.27;43.17;;;;;;;;;;5070273;23;20207;-76
2021/12/16 08:11:50;;;;;;;122.43;41.73;;;;;;;;;;5081746;23;20203;-76
2021/12/16 08:14:18;;;;;;;144.60;44.07;;;;;;;;;;5069737;23;21988;-75
2021/12/16 08:16:45;;;;;;;139.07;45.23;;;;;;;;;;5053241;23;20303;-78
2021/12/16 08:19:11;;;;;;;145.13;44.23;;;;;;;;;;5069131;23;20320;-76
2021/12/16 08:21:38;;;;;;;144.47;45.33;;;;;;;;;;5092298;23;20660;-75
2021/12/16 08:24:06;;;;;;;157.67;45.47;;;;;;;;;;5079605;23;20779;-76
2021/12/16 08:26:34;;;;;;;142.60;44.97;;;;;;;;;;5075570;23;21118;-77
2021/12/16 08:29:00;;;;;;;159.17;46.70;;;;;;;;;;5066490;23;20894;-76
2021/12/16 08:31:27;;;;;;;158.47;45.07;;;;;;;;;;5070725;23;21408;-77
2021/12/16 08:33:56;;;;;;;156.67;46.23;;;;;;;;;;5054869;23;20201;-77
2021/12/16 08:36:23;;;;;;;158.43;46.17;;;;;;;;;;5021283;23;20215;-75
2021/12/16 08:38:50;;;;;;;173.83;48.60;;;;;;;;;;5031475;23;20475;-76
2021/12/16 08:41:18;;;;;;;160.30;44.53;;;;;;;;;;5029183;23;20216;-76
2021/12/16 08:43:45;;;;;;;148.63;45.40;;;;;;;;;;5032715;23;20264;-76
2021/12/16 08:46:13;;;;;;;183.23;47.87;;;;;;;;;;5052417;23;20205;-77
2021/12/16 08:48:41;;;;;;;161.67;46.77;;;;;;;;;;5052561;23;20217;-74
2021/12/16 08:51:08;;;;;;;169.17;47.37;;;;;;;;;;5035743;23;23626;-77
2021/12/16 08:53:35;;;;;;;153.07;46.20;;;;;;;;;;5036260;23;20206;-76
2021/12/16 08:56:03;;;;;;;159.13;46.33;;;;;;;;;;5043133;23;20618;-80
2021/12/16 08:58:31;;;;;;;160.23;47.17;;;;;;;;;;5018285;23;20253;-78
2021/12/16 09:01:04;;;;;;;149.37;44.57;;;;;;;;;;5025933;23;20212;-78
2021/12/16 09:03:30;;;;;;;171.10;45.77;;;;;;;;;;5047771;23;21708;-77
2021/12/16 09:05:57;;;;;;;161.33;46.13;;;;;;;;;;5029854;23;20391;-78
2021/12/16 09:08:24;;;;;;;156.80;45.93;;;;;;;;;;5049365;23;22363;-87
2021/12/16 09:10:51;;;;;;;151.10;44.60;;;;;;;;;;5060535;23;20204;-80
2021/12/16 09:13:18;;;;;;;170.47;49.53;;;;;;;;;;5047401;23;21615;-83
2021/12/16 09:15:49;;;;;;;169.10;47.40;;;;;;;;;;5136545;23;21210;-84
2021/12/16 09:18:25;;;;;;;158.87;45.77;;;;;;;;;;5156867;23;20898;-85
2021/12/16 09:20:55;;;;;;;168.07;45.43;;;;;;;;;;5134622;23;20628;-89
2021/12/16 09:23:27;;;;;;;151.40;42.30;;;;;;;;;;5143754;23;20209;-82
2021/12/16 09:25:53;;;;;;;161.50;44.73;;;;;;;;;;5195543;23;20209;-84
2021/12/16 09:28:20;;;;;;;158.53;43.93;;;;;;;;;;5096043;23;20342;-86
2021/12/16 09:30:47;;;;;;;143.73;41.80;;;;;;;;;;5044002;23;20280;-80
2021/12/16 09:33:14;;;;;;;118.70;40.57;;;;;;;;;;5046236;23;20210;-81
2021/12/16 09:35:42;;;;;;;131.83;38.50;;;;;;;;;;5036043;23;22939;-82
2021/12/16 09:38:10;;;;;;;142.27;41.23;;;;;;;;;;5017613;23;20218;-83
2021/12/16 09:40:44;;;;;;;141.10;39.43;;;;;;;;;;5026740;23;20215;-80
2021/12/16 09:43:11;;;;;;;121.00;37.20;;;;;;;;;;5035654;23;22949;-79
2021/12/16 09:45:49;;;;;;;115.83;36.50;;;;;;;;;;5017368;23;20395;-79
2021/12/16 09:48:16;;;;;;;107.20;34.53;;;;;;;;;;5032951;23;20253;-83
2021/12/16 09:50:43;;;;;;;127.77;37.53;;;;;;;;;;5034058;23;20215;-79
2021/12/16 09:53:09;;;;;;;118.60;35.40;;;;;;;;;;5028910;23;20617;-81
2021/12/16 09:55:36;;;;;;;105.47;33.97;;;;;;;;;;5031159;23;20213;-78
2021/12/16 09:58:03;;;;;;;103.67;33.40;;;;;;;;;;5046805;23;20210;-80
2021/12/16 10:00:30;;;;;;;103.60;33.83;;;;;;;;;;5050042;23;20994;-80
2021/12/16 10:02:57;;;;;;;101.23;34.33;;;;;;;;;;5033834;23;20208;-82
2021/12/16 10:05:24;;;;;;;99.33;32.27;;;;;;;;;;5034089;23;20323;-80
2021/12/16 10:07:51;;;;;;;102.83;31.83;;;;;;;;;;5033055;23;20210;-76
2021/12/16 10:10:24;;;;;;;101.47;32.17;;;;;;;;;;5026539;23;20577;-76
2021/12/16 10:12:57;;;;;;;122.90;42.57;;;;;;;;;;5025855;23;23406;-75
2021/12/16 10:18:06;;;;;;;93.57;32.33;;;;;;;;;;5035784;23;21213;-75
2021/12/16 10:20:44;;;;;;;94.10;34.77;;;;;;;;;;5010387;23;21745;-76
2021/12/16 10:23:23;;;;;;;92.67;33.03;;;;;;;;;;5020090;23;20213;-78
2021/12/16 10:25:52;;;;;;;91.73;35.23;;;;;;;;;;5009585;23;21711;-76
2021/12/16 10:28:23;;;;;;;95.13;35.30;;;;;;;;;;5026475;23;20265;-77
2021/12/16 10:30:50;;;;;;;88.70;32.93;;;;;;;;;;5027512;23;20212;-77
2021/12/16 10:33:23;;;;;;;88.60;33.37;;;;;;;;;;5045558;23;20208;-77
2021/12/16 10:35:50;;;;;;;95.17;34.27;;;;;;;;;;5017848;23;25260;-76
2021/12/16 10:38:19;;;;;;;95.20;33.57;;;;;;;;;;5035634;23;23162;-76
2021/12/16 10:40:50;;;;;;;93.07;33.17;;;;;;;;;;5046794;23;20543;-76
2021/12/16 10:43:28;;;;;;;94.07;33.13;;;;;;;;;;5048558;23;21114;-78
2021/12/16 10:45:58;;;;;;;91.93;33.77;;;;;;;;;;5044201;23;20893;-77
2021/12/16 10:48:39;;;;;;;91.43;33.67;;;;;;;;;;5054042;23;20204;-77
2021/12/16 10:51:11;;;;;;;91.77;34.57;;;;;;;;;;5060604;23;22774;-76
2021/12/16 10:53:42;;;;;;;97.00;33.83;;;;;;;;;;5031332;23;20208;-77
2021/12/16 10:56:08;;;;;;;84.87;32.43;;;;;;;;;;5049992;23;23176;-78
2021/12/16 10:58:55;;;;;;;89.37;32.83;;;;;;;;;;5059295;23;20274;-76
2021/12/16 11:01:42;;;;;;;88.93;31.63;;;;;;;;;;5062675;23;21538;-75
2021/12/16 11:04:17;;;;;;;93.03;33.07;;;;;;;;;;5050451;23;20220;-79
2021/12/16 11:06:46;;;;;;;91.17;30.77;;;;;;;;;;5063857;23;20204;-77
2021/12/16 11:09:30;;;;;;;90.13;34.37;;;;;;;;;;5051099;23;20647;-75
2021/12/16 11:12:05;;;;;;;86.03;32.17;;;;;;;;;;5058645;23;20207;-77
2021/12/16 11:14:32;;;;;;;85.73;34.07;;;;;;;;;;5051582;23;20200;-77
2021/12/16 11:17:00;;;;;;;95.37;34.10;;;;;;;;;;5101558;23;20262;-77
2021/12/16 11:19:45;;;;;;;89.07;33.20;;;;;;;;;;5086125;23;20208;-81
2021/12/16 11:22:13;;;;;;;78.30;31.50;;;;;;;;;;5099080;23;20214;-81
2021/12/16 11:24:40;;;;;;;73.50;31.53;;;;;;;;;;5097304;23;20219;-78
2021/12/16 11:27:24;;;;;;;73.37;29.93;;;;;;;;;;5105452;23;20209;-79
2021/12/16 11:29:51;;;;;;;68.90;30.07;;;;;;;;;;5115886;23;20208;-80
2021/12/16 11:32:34;;;;;;;65.87;28.63;;;;;;;;;;5132266;23;20835;-80
2021/12/16 11:35:21;;;;;;;71.67;30.00;;;;;;;;;;5153581;23;21317;-80
2021/12/16 11:37:48;;;;;;;66.80;29.23;;;;;;;;;;5144112;23;20266;-83
2021/12/16 11:40:16;;;;;;;63.57;28.90;;;;;;;;;;5190679;23;20212;-78
2021/12/16 11:42:42;;;;;;;61.10;26.90;;;;;;;;;;5091151;23;20228;-81
2021/12/16 11:45:09;;;;;;;59.63;26.60;;;;;;;;;;5118902;23;22622;-81
2021/12/16 11:47:45;;;;;;;56.37;27.23;;;;;;;;;;5086102;23;20204;-82
2021/12/16 11:50:12;;;;;;;58.00;25.53;;;;;;;;;;5045297;23;20262;-79
2021/12/16 11:52:40;;;;;;;54.70;26.20;;;;;;;;;;5077899;23;22913;-81
2021/12/16 11:55:11;;;;;;;46.13;23.87;;;;;;;;;;5054380;23;20308;-81
2021/12/16 11:57:39;;;;;;;53.57;26.17;;;;;;;;;;5067043;23;20208;-82
2021/12/16 12:00:08;;;;;;;49.53;24.17;;;;;;;;;;5045827;23;21534;-81
2021/12/16 12:02:39;;;;;;;47.67;23.07;;;;;;;;;;5058454;23;20260;-81
2021/12/16 12:05:24;;;;;;;42.40;22.33;;;;;;;;;;5082085;23;20207;-79
2021/12/16 12:07:52;;;;;;;42.40;21.23;;;;;;;;;;5064073;23;20213;-86
2021/12/16 12:10:33;;;;;;;39.47;20.57;;;;;;;;;;5067827;23;20205;-81
2021/12/16 12:13:02;;;;;;;35.47;19.93;;;;;;;;;;5057266;23;22814;-82
2021/12/16 12:15:29;;;;;;;39.00;20.43;;;;;;;;;;5091737;23;20224;-79
2021/12/16 12:17:57;;;;;;;36.07;19.07;;;;;;;;;;5094237;23;20212;-80
2021/12/16 12:20:27;;;;;;;36.53;18.80;;;;;;;;;;5080998;23;20863;-82
2021/12/16 12:22:53;;;;;;;30.80;15.47;;;;;;;;;;5068648;23;20212;-81
2021/12/16 12:25:20;;;;;;;31.87;16.50;;;;;;;;;;5078824;23;21665;-79
2021/12/16 12:27:47;;;;;;;24.23;13.83;;;;;;;;;;5076574;23;21418;-81
2021/12/16 12:30:14;;;;;;;21.70;13.00;;;;;;;;;;5088668;23;20286;-80
2021/12/16 12:32:45;;;;;;;22.67;12.20;;;;;;;;;;5083622;23;21382;-82
2021/12/16 12:35:18;;;;;;;22.67;11.27;;;;;;;;;;5053536;23;21018;-82
2021/12/16 12:37:46;;;;;;;17.13;9.93;;;;;;;;;;5077530;23;20209;-80
2021/12/16 12:40:16;;;;;;;15.60;8.80;;;;;;;;;;5065798;23;21725;-79
2021/12/16 12:42:44;;;;;;;16.10;8.93;;;;;;;;;;5064212;23;20655;-80
2021/12/16 12:45:11;;;;;;;12.87;7.97;;;;;;;;;;5050799;23;20376;-82
2021/12/16 12:47:40;;;;;;;15.20;7.43;;;;;;;;;;5048554;23;21046;-79
2021/12/16 12:50:16;;;;;;;13.67;7.60;;;;;;;;;;5054949;23;21585;-79
2021/12/16 12:52:46;;;;;;;15.17;8.90;;;;;;;;;;5050672;23;20358;-80
2021/12/16 12:55:14;;;;;;;12.00;7.60;;;;;;;;;;5048251;23;20606;-81
2021/12/16 12:57:42;;;;;;;11.63;5.97;;;;;;;;;;5051564;23;20387;-81
2021/12/16 13:00:29;;;;;;;9.83;5.80;;;;;;;;;;5048679;23;20208;-83
2021/12/16 13:02:57;;;;;;;10.47;6.50;;;;;;;;;;5085819;23;22487;-76
2021/12/16 13:05:24;;;;;;;10.87;5.70;;;;;;;;;;5019759;23;20335;-78
2021/12/16 13:07:55;;;;;;;9.70;6.13;;;;;;;;;;5055043;23;20226;-77
2021/12/16 13:10:29;;;;;;;12.40;6.73;;;;;;;;;;5057372;23;21294;-77
2021/12/16 13:13:27;;;;;;;10.03;6.40;;;;;;;;;;5074955;23;20200;-77
2021/12/16 13:16:11;;;;;;;11.03;6.90;;;;;;;;;;5051290;23;20228;-78
2021/12/16 13:26:50;;;;;;;9.30;4.90;;;;;;;;;;5046617;23;22044;-80
2021/12/16 13:29:33;;;;;;;8.10;5.13;;;;;;;;;;5053779;23;20344;-80
2021/12/16 13:32:13;;;;;;;7.90;4.63;;;;;;;;;;5047133;23;20209;-76
2021/12/16 13:34:49;;;;;;;9.43;5.13;;;;;;;;;;5043711;23;20208;-75
2021/12/16 13:37:23;;;;;;;10.60;5.77;;;;;;;;;;5052948;23;26645;-77
2021/12/16 13:39:53;;;;;;;10.63;5.67;;;;;;;;;;5081715;23;21280;-76
2021/12/16 13:42:20;;;;;;;9.57;5.47;;;;;;;;;;5044424;23;20215;-78
2021/12/16 13:44:56;;;;;;;9.83;5.40;;;;;;;;;;5049289;23;25524;-75
2021/12/16 13:47:40;;;;;;;10.63;5.60;;;;;;;;;;5061306;23;20215;-74
2021/12/16 14:04:51;;;;;;;10.47;5.67;;;;;;;;;;5077052;23;21485;-74
2021/12/16 14:10:16;;;;;;;11.70;5.80;;;;;;;;;;5093237;23;20204;-74
2021/12/16 14:15:57;;;;;;;12.10;6.77;;;;;;;;;;5084086;23;21549;-77
2021/12/16 14:23:01;;;;;;;18.90;8.93;;;;;;;;;;5044654;23;20211;-76
2021/12/16 14:24:29;;;;;;;10.73;5.27;;;;;;;;;;5055523;23;20203;-77
2021/12/16 14:27:06;;;;;;;10.10;5.10;;;;;;;;;;5032450;23;20671;-77
2021/12/16 14:35:18;;;;;;;6.30;3.87;;;;;;;;;;5045339;23;20252;-77
2021/12/16 14:38:10;;;;;;;6.70;3.70;;;;;;;;;;5053747;23;20220;-75
2021/12/16 14:41:04;;;;;;;7.80;4.10;;;;;;;;;;5040493;23;20212;-76
2021/12/16 14:43:40;;;;;;;6.97;3.63;;;;;;;;;;5046509;23;20211;-77
2021/12/16 14:46:09;;;;;;;6.40;3.80;;;;;;;;;;5051837;23;20207;-76
2021/12/16 14:48:36;;;;;;;10.57;4.40;;;;;;;;;;5041187;23;20228;-77
2021/12/16 14:51:07;;;;;;;9.40;4.30;;;;;;;;;;5053354;23;20964;-74
2021/12/16 14:53:42;;;;;;;6.90;4.00;;;;;;;;;;5030802;23;20471;-74
2021/12/16 14:56:14;;;;;;;9.87;4.13;;;;;;;;;;5049437;23;20211;-76
2021/12/16 14:58:42;;;;;;;10.07;4.30;;;;;;;;;;5038393;23;20283;-78
2021/12/16 15:01:16;;;;;;;12.23;4.63;;;;;;;;;;5041138;23;20208;-76
2021/12/16 15:03:44;;;;;;;11.83;5.93;;;;;;;;;;5049418;23;20208;-76
2021/12/16 15:06:17;;;;;;;13.57;7.07;;;;;;;;;;5051518;23;20590;-80
2021/12/16 15:08:53;;;;;;;11.90;6.00;;;;;;;;;;5058089;23;20457;-78
2021/12/16 15:11:33;;;;;;;14.40;7.20;;;;;;;;;;5065870;23;20278;-82
2021/12/16 15:14:05;;;;;;;10.17;5.40;;;;;;;;;;5038361;23;20211;-79
2021/12/16 15:16:48;;;;;;;11.40;4.47;;;;;;;;;;5056807;23;20212;-78
2021/12/16 15:38:36;;;;;;;10.70;3.00;;;;;;;;;;5069730;23;20214;-77
2021/12/16 15:43:55;;;;;;;11.37;3.47;;;;;;;;;;5032708;23;20280;-78
2021/12/16 15:46:26;;;;;;;10.40;3.73;;;;;;;;;;5033075;23;20442;-78
2021/12/16 15:48:54;;;;;;;9.00;3.13;;;;;;;;;;5029772;23;20343;-78
2021/12/16 15:51:22;;;;;;;10.53;3.43;;;;;;;;;;5037549;23;20210;-80
2021/12/16 15:53:52;;;;;;;10.70;3.30;;;;;;;;;;5013217;23;20219;-78
2021/12/16 15:56:22;;;;;;;10.40;3.20;;;;;;;;;;5036830;23;20223;-80
2021/12/16 15:58:54;;;;;;;9.57;3.07;;;;;;;;;;5049116;23;20240;-81
2021/12/16 16:01:29;;;;;;;8.73;3.07;;;;;;;;;;5069592;23;21507;-81
2021/12/16 16:03:56;;;;;;;8.67;3.50;;;;;;;;;;5064673;23;21268;-79
2021/12/16 16:06:24;;;;;;;6.90;3.20;;;;;;;;;;5177927;23;20304;-83
2021/12/16 16:08:53;;;;;;;13.77;3.37;;;;;;;;;;5108305;23;20302;-81
2021/12/16 16:11:22;;;;;;;8.43;3.53;;;;;;;;;;5065292;23;20215;-82
2021/12/16 16:13:53;;;;;;;9.07;3.00;;;;;;;;;;5052830;23;20211;-83
2021/12/16 16:16:23;;;;;;;10.03;3.57;;;;;;;;;;5057687;23;20267;-80
2021/12/16 16:18:55;;;;;;;11.67;4.00;;;;;;;;;;5060410;23;20204;-81
2021/12/16 16:21:25;;;;;;;12.00;3.97;;;;;;;;;;5063709;23;21768;-81
2021/12/16 16:23:54;;;;;;;11.33;3.50;;;;;;;;;;5044654;23;20303;-81
2021/12/16 16:26:22;;;;;;;13.47;4.00;;;;;;;;;;5072677;23;20208;-81
2021/12/16 16:28:51;;;;;;;16.67;4.13;;;;;;;;;;5061126;23;20203;-81
2021/12/16 16:31:20;;;;;;;9.83;3.50;;;;;;;;;;5090722;23;20204;-79
2021/12/16 16:33:47;;;;;;;12.27;3.73;;;;;;;;;;5103952;23;20223;-78
2021/12/16 16:36:15;;;;;;;8.97;3.30;;;;;;;;;;5056668;23;20649;-78
2021/12/16 16:38:43;;;;;;;11.30;3.53;;;;;;;;;;5063803;23;20554;-78
2021/12/16 16:41:15;;;;;;;13.67;3.70;;;;;;;;;;5098402;23;20212;-79
2021/12/16 16:43:44;;;;;;;9.87;3.80;;;;;;;;;;5063312;23;20211;-82
2021/12/16 16:46:19;;;;;;;9.70;3.53;;;;;;;;;;5052368;23;20213;-79
2021/12/16 16:49:03;;;;;;;11.97;3.83;;;;;;;;;;5074626;23;20216;-79
2021/12/16 16:51:39;;;;;;;12.67;5.17;;;;;;;;;;5047510;23;21048;-81
2021/12/16 16:54:09;;;;;;;19.60;5.90;;;;;;;;;;5070572;23;21533;-80
2021/12/16 16:56:45;;;;;;;17.73;7.33;;;;;;;;;;5076592;23;20205;-80
2021/12/16 16:59:13;;;;;;;21.33;8.37;;;;;;;;;;5068787;23;20271;-77
2021/12/16 17:01:40;;;;;;;17.40;8.30;;;;;;;;;;5065701;23;22607;-80
2021/12/16 17:04:08;;;;;;;20.67;7.40;;;;;;;;;;5071624;23;20202;-79
2021/12/16 17:06:37;;;;;;;19.90;7.43;;;;;;;;;;5028798;23;21492;-75
2021/12/16 17:09:03;;;;;;;22.50;7.80;;;;;;;;;;5122924;23;20263;-75
2021/12/16 17:11:31;;;;;;;16.53;6.20;;;;;;;;;;5063059;23;20214;-73
2021/12/16 17:14:11;;;;;;;14.77;6.30;;;;;;;;;;5092320;23;22851;-80
2021/12/16 17:19:34;;;;;;;18.33;5.70;;;;;;;;;;5084580;23;20309;-78
2021/12/16 17:22:02;;;;;;;15.03;4.93;;;;;;;;;;5047169;23;20917;-79
2021/12/16 17:24:30;;;;;;;21.80;5.37;;;;;;;;;;5053294;23;21387;-77
2021/12/16 17:26:59;;;;;;;21.27;5.90;;;;;;;;;;5054703;23;21726;-79
2021/12/16 17:29:31;;;;;;;17.33;6.40;;;;;;;;;;5073842;23;20366;-82
2021/12/16 17:32:00;;;;;;;14.63;7.07;;;;;;;;;;5084347;23;22977;-80
2021/12/16 17:34:30;;;;;;;20.50;8.43;;;;;;;;;;5121875;23;20207;-80
2021/12/16 17:37:02;;;;;;;28.53;8.03;;;;;;;;;;5083631;23;23080;-79
2021/12/16 17:39:40;;;;;;;24.30;10.53;;;;;;;;;;5059100;23;21775;-78
2021/12/16 17:42:15;;;;;;;23.97;10.90;;;;;;;;;;5050403;23;20263;-79
2021/12/16 17:44:44;;;;;;;23.23;8.17;;;;;;;;;;5061858;23;21666;-82
2021/12/16 17:47:13;;;;;;;26.07;9.17;;;;;;;;;;5079560;23;21522;-78
2021/12/16 17:49:40;;;;;;;25.93;9.27;;;;;;;;;;5045954;23;22809;-80
2021/12/16 17:52:15;;;;;;;22.37;8.90;;;;;;;;;;5061843;23;20209;-80
2021/12/16 17:54:44;;;;;;;26.53;8.83;;;;;;;;;;5059394;23;20219;-79
2021/12/16 17:57:11;;;;;;;21.63;8.57;;;;;;;;;;5063069;23;20289;-80
2021/12/16 17:59:38;;;;;;;22.23;8.03;;;;;;;;;;5051886;23;20431;-80
2021/12/16 18:02:16;;;;;;;26.43;8.80;;;;;;;;;;5114451;23;20212;-76
2021/12/16 18:04:46;;;;;;;20.90;8.57;;;;;;;;;;5052118;23;20208;-77
2021/12/16 18:07:13;;;;;;;19.90;8.20;;;;;;;;;;5079947;23;20467;-78
2021/12/16 18:09:41;;;;;;;20.37;7.87;;;;;;;;;;5046641;23;20894;-73
2021/12/16 18:12:12;;;;;;;20.67;7.23;;;;;;;;;;5038530;23;20211;-79
2021/12/16 18:14:45;;;;;;;22.77;7.00;;;;;;;;;;5073850;23;20212;-77
2021/12/16 18:17:15;;;;;;;19.03;7.00;;;;;;;;;;5057518;23;21156;-78
2021/12/16 18:19:48;;;;;;;23.57;7.63;;;;;;;;;;5069595;23;20233;-80
2021/12/16 18:22:17;;;;;;;20.87;6.73;;;;;;;;;;5069513;23;22394;-76
2021/12/16 18:24:46;;;;;;;27.13;7.47;;;;;;;;;;5046773;23;21190;-76
2021/12/16 18:27:21;;;;;;;19.87;6.43;;;;;;;;;;5044733;23;22253;-78
2021/12/16 18:29:51;;;;;;;23.50;6.80;;;;;;;;;;5056808;23;20601;-78
2021/12/16 18:32:25;;;;;;;23.40;6.27;;;;;;;;;;5046059;23;20647;-81
2021/12/16 18:34:55;;;;;;;21.40;6.20;;;;;;;;;;5049550;23;20207;-79